Saturday, October 20, 2018, 10:31 PM EDT
Back to Local

K12N, Aeroflex-andover Airport

Location: Newton, NJ, United States Lat: 41.017
Local Time: 10:31 PM EDT ( 2:31 GMT) Lon: -74.733
Time Zone: US/Eastern Elev: 583 ft

Show me the last for .
Show Decoded

2018-10-20 21:54 METAR K12N 210154Z AUTO 00000KT 09/07 A2964 RMK AO1 SLP039 T00890067 =
2018-10-20 20:54 METAR K12N 210054Z AUTO 00000KT 09/05 A2964 RMK AO1 SLP038 T00940050 =
2018-10-20 19:54 METAR K12N 202354Z AUTO 00000KT 10/04 A2964 RMK AO1 SLP037 T01000044 10167 20083
                 53008 =
2018-10-20 18:54 METAR K12N 202254Z AUTO 00000KT 09/05 A2962 RMK AO1 SLP030 T00940050 =
2018-10-20 17:54 METAR K12N 202154Z AUTO 00000KT 13/04 A2960 RMK AO1 SLP026 T01330039 =
2018-10-20 16:54 METAR K12N 202054Z AUTO 23007KT 16/03 A2961 RMK AO1 SLP027 T01560033 56019 =
2018-10-20 15:54 METAR K12N 201954Z AUTO VRB04KT 15/04 A2963 RMK AO1 SLP033 T01500039 =
2018-10-20 14:54 METAR K12N 201854Z AUTO VRB04KT 16/05 A2964 RMK AO1 SLP037 T01610050 =
2018-10-20 13:54 METAR K12N 201754Z AUTO VRB05G17KT 15/05 A2967 RMK AO1 SLP046 T01500050 10156
                 20106 58024 =
2018-10-20 12:54 METAR K12N 201654Z AUTO VRB03KT 14/07 A2970 RMK AO1 SLP057 T01440067 =
2018-10-20 11:54 METAR K12N 201554Z AUTO VRB05KT 14/08 A2972 RMK AO1 SLP064 T01390078 =
2018-10-20 10:54 METAR K12N 201454Z AUTO VRB04KT 12/09 A2974 RMK AO1 SLP071 T01220089 58004 =
2018-10-20 09:54 METAR K12N 201354Z AUTO 23007G14KT 190V260 12/09 A2975 RMK AO1 SLP074 T01220094
                 =
2018-10-20 08:54 METAR K12N 201254Z AUTO 21005KT 11/09 A2975 RMK AO1 SLP074 T01060094 =
2018-10-20 07:54 METAR K12N 201154Z AUTO VRB03KT 11/09 A2975 RMK AO1 SLP077 60002 70005 T01060089
                 10106 20094 55000 =
2018-10-20 06:54 METAR K12N 201054Z AUTO 20005KT 11/09 A2975 RMK AO1 SLP074 T01060089 =
2018-10-20 05:54 METAR K12N 200954Z AUTO VRB04KT 10/09 A2973 RMK AO1 SLP070 T01000089 =
2018-10-20 04:54 METAR K12N 200854Z AUTO VRB03KT 10/09 A2975 RMK AO1 SLP076 60002 T01000089 56030
                 =
2018-10-20 03:54 METAR K12N 200754Z AUTO 00000KT 10/08 A2977 RMK AO1 SLP082 P0001 T01000083 =
2018-10-20 02:54 METAR K12N 200654Z AUTO 00000KT 09/08 A2980 RMK AO1 SLP093 P0001 T00940083 =
2018-10-20 01:54 METAR K12N 200554Z AUTO 00000KT 09/08 A2984 RMK AO1 SLP107 P0003 60003 T00940083
                 10117 20094 56024 =
2018-10-20 00:54 METAR K12N 200454Z AUTO 00000KT 11/06 A2986 RMK AO1 SLP112 T01110061 401441011 =
2018-10-19 23:54 METAR K12N 200354Z AUTO 20003KT 11/06 A2989 RMK AO1 SLP121 T01110056 =
2018-10-19 22:54 METAR K12N 200254Z AUTO VRB05KT 12/05 A2992 RMK AO1 SLP133 T01170050 58026 =

Support USWX by starting your Amazon purchase here.